sensor_id;sensor_type;location;lat;lon;timestamp;pressure;altitude;pressure_sealevel;temperature;humidity
18790;BME280;9523;42.650;23.386;2022-07-29T00:00:38;94776.41;;;18.70;100.00
18790;BME280;9523;42.650;23.386;2022-07-29T00:03:05;94790.78;;;18.65;100.00
18790;BME280;9523;42.650;23.386;2022-07-29T00:05:32;94789.97;;;18.65;100.00
18790;BME280;9523;42.650;23.386;2022-07-29T00:07:58;94796.69;;;18.59;100.00
18790;BME280;9523;42.650;23.386;2022-07-29T00:10:25;94798.22;;;18.60;100.00
18790;BME280;9523;42.650;23.386;2022-07-29T00:12:52;94796.88;;;18.54;100.00
18790;BME280;9523;42.650;23.386;2022-07-29T00:15:19;94804.22;;;18.57;100.00
18790;BME280;9523;42.650;23.386;2022-07-29T00:17:47;94801.50;;;18.45;100.00
18790;BME280;9523;42.650;23.386;2022-07-29T00:20:14;94811.53;;;18.48;100.00
18790;BME280;9523;42.650;23.386;2022-07-29T00:22:41;94812.47;;;18.52;100.00
18790;BME280;9523;42.650;23.386;2022-07-29T00:25:08;94814.03;;;18.65;100.00
18790;BME280;9523;42.650;23.386;2022-07-29T00:27:36;94813.94;;;18.73;100.00
18790;BME280;9523;42.650;23.386;2022-07-29T00:30:03;94812.59;;;18.80;100.00
18790;BME280;9523;42.650;23.386;2022-07-29T00:32:30;94807.81;;;18.73;100.00
18790;BME280;9523;42.650;23.386;2022-07-29T00:34:59;94803.13;;;18.70;100.00
18790;BME280;9523;42.650;23.386;2022-07-29T00:37:43;94785.66;;;18.72;100.00
18790;BME280;9523;42.650;23.386;2022-07-29T00:40:10;94789.97;;;18.89;100.00
18790;BME280;9523;42.650;23.386;2022-07-29T00:42:43;94802.00;;;18.95;100.00
18790;BME280;9523;42.650;23.386;2022-07-29T00:45:11;94792.88;;;18.96;100.00
18790;BME280;9523;42.650;23.386;2022-07-29T00:47:37;94797.44;;;18.96;100.00
18790;BME280;9523;42.650;23.386;2022-07-29T00:50:10;94799.78;;;18.85;100.00
18790;BME280;9523;42.650;23.386;2022-07-29T00:52:39;94809.59;;;18.93;100.00
18790;BME280;9523;42.650;23.386;2022-07-29T00:55:08;94805.56;;;18.99;100.00
18790;BME280;9523;42.650;23.386;2022-07-29T00:57:36;94805.81;;;18.94;100.00
18790;BME280;9523;42.650;23.386;2022-07-29T01:00:05;94807.03;;;18.97;100.00
18790;BME280;9523;42.650;23.386;2022-07-29T01:02:32;94801.09;;;19.03;100.00
18790;BME280;9523;42.650;23.386;2022-07-29T01:04:59;94801.34;;;19.10;100.00
18790;BME280;9523;42.650;23.386;2022-07-29T01:07:28;94797.97;;;19.13;100.00
18790;BME280;9523;42.650;23.386;2022-07-29T01:09:59;94795.53;;;19.20;100.00
18790;BME280;9523;42.650;23.386;2022-07-29T01:12:28;94794.41;;;19.21;100.00
18790;BME280;9523;42.650;23.386;2022-07-29T01:14:58;94784.50;;;19.22;100.00
18790;BME280;9523;42.650;23.386;2022-07-29T01:17:28;94796.41;;;19.12;100.00
18790;BME280;9523;42.650;23.386;2022-07-29T01:20:03;94802.88;;;19.11;100.00
18790;BME280;9523;42.650;23.386;2022-07-29T01:22:49;94801.56;;;19.05;100.00
18790;BME280;9523;42.650;23.386;2022-07-29T01:25:32;94796.78;;;18.99;100.00
18790;BME280;9523;42.650;23.386;2022-07-29T01:28:17;94797.91;;;18.98;100.00
18790;BME280;9523;42.650;23.386;2022-07-29T01:30:50;94793.31;;;18.98;100.00
18790;BME280;9523;42.650;23.386;2022-07-29T01:33:20;94794.44;;;19.09;100.00
18790;BME280;9523;42.650;23.386;2022-07-29T01:36:11;94787.06;;;19.18;100.00
18790;BME280;9523;42.650;23.386;2022-07-29T01:38:41;94790.16;;;19.20;100.00
18790;BME280;9523;42.650;23.386;2022-07-29T01:41:12;94761.13;;;19.07;100.00
18790;BME280;9523;42.650;23.386;2022-07-29T01:43:44;94775.22;;;19.19;100.00
18790;BME280;9523;42.650;23.386;2022-07-29T01:46:14;94768.34;;;19.18;100.00
18790;BME280;9523;42.650;23.386;2022-07-29T01:48:47;94774.91;;;19.21;100.00
18790;BME280;9523;42.650;23.386;2022-07-29T01:51:17;94771.66;;;19.28;100.00
18790;BME280;9523;42.650;23.386;2022-07-29T01:53:50;94771.22;;;19.26;100.00
18790;BME280;9523;42.650;23.386;2022-07-29T01:56:23;94777.00;;;19.28;100.00
18790;BME280;9523;42.650;23.386;2022-07-29T01:58:52;94782.47;;;19.19;100.00
18790;BME280;9523;42.650;23.386;2022-07-29T02:01:22;94782.25;;;19.12;100.00
18790;BME280;9523;42.650;23.386;2022-07-29T02:03:51;94780.63;;;18.83;100.00
18790;BME280;9523;42.650;23.386;2022-07-29T02:06:22;94772.84;;;18.66;100.00
18790;BME280;9523;42.650;23.386;2022-07-29T02:08:50;94775.41;;;18.62;100.00
18790;BME280;9523;42.650;23.386;2022-07-29T02:11:19;94744.09;;;18.39;100.00
18790;BME280;9523;42.650;23.386;2022-07-29T02:13:46;94774.59;;;18.50;100.00
18790;BME280;9523;42.650;23.386;2022-07-29T02:16:16;94763.94;;;18.62;100.00
18790;BME280;9523;42.650;23.386;2022-07-29T02:18:52;94769.97;;;18.59;100.00
18790;BME280;9523;42.650;23.386;2022-07-29T02:21:23;94760.38;;;18.58;100.00
18790;BME280;9523;42.650;23.386;2022-07-29T02:23:51;94762.38;;;18.61;100.00
18790;BME280;9523;42.650;23.386;2022-07-29T02:26:20;94765.38;;;18.59;100.00
18790;BME280;9523;42.650;23.386;2022-07-29T02:28:48;94769.72;;;18.64;100.00
18790;BME280;9523;42.650;23.386;2022-07-29T02:31:18;94761.94;;;18.71;100.00
18790;BME280;9523;42.650;23.386;2022-07-29T02:33:48;94751.00;;;18.52;100.00
18790;BME280;9523;42.650;23.386;2022-07-29T02:36:16;94769.41;;;18.65;100.00
18790;BME280;9523;42.650;23.386;2022-07-29T02:38:44;94760.59;;;18.65;100.00
18790;BME280;9523;42.650;23.386;2022-07-29T02:41:19;94751.25;;;18.71;100.00
18790;BME280;9523;42.650;23.386;2022-07-29T02:43:48;94752.56;;;18.77;100.00
18790;BME280;9523;42.650;23.386;2022-07-29T02:46:19;94743.19;;;18.83;100.00
18790;BME280;9523;42.650;23.386;2022-07-29T02:48:55;94746.53;;;18.80;100.00
18790;BME280;9523;42.650;23.386;2022-07-29T02:51:27;94730.97;;;18.70;100.00
18790;BME280;9523;42.650;23.386;2022-07-29T02:53:56;94738.09;;;18.66;100.00
18790;BME280;9523;42.650;23.386;2022-07-29T02:56:25;94731.31;;;18.56;100.00
18790;BME280;9523;42.650;23.386;2022-07-29T02:58:55;94734.53;;;18.62;100.00
18790;BME280;9523;42.650;23.386;2022-07-29T03:01:25;94741.56;;;18.66;100.00
18790;BME280;9523;42.650;23.386;2022-07-29T03:04:01;94751.25;;;18.71;100.00
18790;BME280;9523;42.650;23.386;2022-07-29T03:06:30;94750.56;;;18.74;100.00
18790;BME280;9523;42.650;23.386;2022-07-29T03:08:58;94748.56;;;18.71;100.00
18790;BME280;9523;42.650;23.386;2022-07-29T03:11:27;94720.28;;;18.58;100.00
18790;BME280;9523;42.650;23.386;2022-07-29T03:13:54;94748.78;;;18.78;100.00
18790;BME280;9523;42.650;23.386;2022-07-29T03:16:21;94741.66;;;18.82;100.00
18790;BME280;9523;42.650;23.386;2022-07-29T03:18:51;94750.56;;;18.74;100.00
18790;BME280;9523;42.650;23.386;2022-07-29T03:21:25;94739.00;;;18.70;100.00
18790;BME280;9523;42.650;23.386;2022-07-29T03:23:52;94750.47;;;18.70;100.00
18790;BME280;9523;42.650;23.386;2022-07-29T03:26:19;94751.91;;;18.68;100.00
18790;BME280;9523;42.650;23.386;2022-07-29T03:28:46;94753.78;;;18.67;100.00
18790;BME280;9523;42.650;23.386;2022-07-29T03:31:13;94754.56;;;18.68;100.00
18790;BME280;9523;42.650;23.386;2022-07-29T03:33:40;94751.91;;;18.68;100.00
18790;BME280;9523;42.650;23.386;2022-07-29T03:36:07;94749.00;;;18.61;100.00
18790;BME280;9523;42.650;23.386;2022-07-29T03:38:35;94750.47;;;18.58;100.00
18790;BME280;9523;42.650;23.386;2022-07-29T03:41:06;94752.00;;;18.59;100.00
18790;BME280;9523;42.650;23.386;2022-07-29T03:43:36;94751.00;;;18.52;100.00
18790;BME280;9523;42.650;23.386;2022-07-29T03:46:06;94754.78;;;18.51;100.00
18790;BME280;9523;42.650;23.386;2022-07-29T03:48:36;94751.63;;;18.37;100.00
18790;BME280;9523;42.650;23.386;2022-07-29T03:51:03;94770.25;;;18.45;100.00
18790;BME280;9523;42.650;23.386;2022-07-29T03:53:30;94760.13;;;18.39;100.00
18790;BME280;9523;42.650;23.386;2022-07-29T03:55:59;94761.66;;;18.40;100.00
18790;BME280;9523;42.650;23.386;2022-07-29T03:58:30;94773.91;;;18.41;100.00
18790;BME280;9523;42.650;23.386;2022-07-29T04:00:58;94777.03;;;18.43;100.00
18790;BME280;9523;42.650;23.386;2022-07-29T04:03:25;94773.69;;;18.46;100.00
18790;BME280;9523;42.650;23.386;2022-07-29T04:05:59;94766.13;;;18.48;100.00
18790;BME280;9523;42.650;23.386;2022-07-29T04:08:26;94767.78;;;18.40;100.00
18790;BME280;9523;42.650;23.386;2022-07-29T04:10:55;94768.78;;;18.48;100.00
18790;BME280;9523;42.650;23.386;2022-07-29T04:13:24;94770.50;;;18.52;100.00
18790;BME280;9523;42.650;23.386;2022-07-29T04:15:51;94768.41;;;18.58;100.00
18790;BME280;9523;42.650;23.386;2022-07-29T04:18:19;94777.97;;;18.59;100.00
18790;BME280;9523;42.650;23.386;2022-07-29T04:20:46;94763.94;;;18.62;100.00
18790;BME280;9523;42.650;23.386;2022-07-29T04:23:13;94767.81;;;18.64;100.00
18790;BME280;9523;42.650;23.386;2022-07-29T04:25:40;94769.50;;;18.57;100.00
18790;BME280;9523;42.650;23.386;2022-07-29T04:28:09;94764.63;;;18.71;100.00
18790;BME280;9523;42.650;23.386;2022-07-29T04:30:37;94761.25;;;18.74;100.00
18790;BME280;9523;42.650;23.386;2022-07-29T04:33:06;94762.47;;;18.76;100.00
18790;BME280;9523;42.650;23.386;2022-07-29T04:35:35;94768.50;;;18.86;100.00
18790;BME280;9523;42.650;23.386;2022-07-29T04:38:03;94763.94;;;18.74;100.00
18790;BME280;9523;42.650;23.386;2022-07-29T04:40:31;94770.94;;;18.91;100.00
18790;BME280;9523;42.650;23.386;2022-07-29T04:42:59;94779.84;;;18.95;100.00
18790;BME280;9523;42.650;23.386;2022-07-29T04:45:26;94778.97;;;18.91;100.00
18790;BME280;9523;42.650;23.386;2022-07-29T04:47:54;94777.63;;;18.97;100.00
18790;BME280;9523;42.650;23.386;2022-07-29T04:50:21;94784.63;;;19.01;100.00
18790;BME280;9523;42.650;23.386;2022-07-29T04:52:48;94779.72;;;19.03;100.00
18790;BME280;9523;42.650;23.386;2022-07-29T04:55:18;94786.63;;;19.04;100.00
18790;BME280;9523;42.650;23.386;2022-07-29T04:57:45;94786.94;;;19.15;100.00
18790;BME280;9523;42.650;23.386;2022-07-29T05:00:12;94784.81;;;19.20;100.00
18790;BME280;9523;42.650;23.386;2022-07-29T05:02:39;94783.38;;;19.11;100.00
18790;BME280;9523;42.650;23.386;2022-07-29T05:05:08;94785.59;;;19.21;100.00
18790;BME280;9523;42.650;23.386;2022-07-29T05:07:35;94795.38;;;19.41;100.00
18790;BME280;9523;42.650;23.386;2022-07-29T05:10:05;94785.44;;;19.42;100.00
18790;BME280;9523;42.650;23.386;2022-07-29T05:12:32;94794.38;;;19.46;100.00
18790;BME280;9523;42.650;23.386;2022-07-29T05:14:59;94791.72;;;19.46;100.00
18790;BME280;9523;42.650;23.386;2022-07-29T05:17:25;94795.00;;;19.55;100.00
18790;BME280;9523;42.650;23.386;2022-07-29T05:19:53;94792.09;;;19.60;100.00
18790;BME280;9523;42.650;23.386;2022-07-29T05:22:21;94797.66;;;19.67;100.00
18790;BME280;9523;42.650;23.386;2022-07-29T05:24:51;94795.31;;;19.65;100.00
18790;BME280;9523;42.650;23.386;2022-07-29T05:27:18;94797.59;;;19.79;100.00
18790;BME280;9523;42.650;23.386;2022-07-29T05:29:45;94799.13;;;19.92;100.00
18790;BME280;9523;42.650;23.386;2022-07-29T05:32:12;94793.63;;;20.01;100.00
18790;BME280;9523;42.650;23.386;2022-07-29T05:34:39;94796.47;;;20.08;100.00
18790;BME280;9523;42.650;23.386;2022-07-29T05:37:06;94792.31;;;20.10;100.00
18790;BME280;9523;42.650;23.386;2022-07-29T05:39:34;94803.09;;;20.26;100.00
18790;BME280;9523;42.650;23.386;2022-07-29T05:42:08;94803.84;;;20.27;100.00
18790;BME280;9523;42.650;23.386;2022-07-29T05:44:36;94792.00;;;20.28;100.00
18790;BME280;9523;42.650;23.386;2022-07-29T05:47:04;94790.94;;;20.44;100.00
18790;BME280;9523;42.650;23.386;2022-07-29T05:49:31;94806.41;;;20.51;100.00
18790;BME280;9523;42.650;23.386;2022-07-29T05:51:58;94801.50;;;20.53;100.00
18790;BME280;9523;42.650;23.386;2022-07-29T05:54:25;94807.72;;;20.57;100.00
18790;BME280;9523;42.650;23.386;2022-07-29T05:56:53;94807.03;;;20.60;100.00
18790;BME280;9523;42.650;23.386;2022-07-29T05:59:21;94810.56;;;20.64;100.00
18790;BME280;9523;42.650;23.386;2022-07-29T06:01:47;94805.38;;;20.71;100.00
18790;BME280;9523;42.650;23.386;2022-07-29T06:04:17;94812.03;;;20.77;100.00
18790;BME280;9523;42.650;23.386;2022-07-29T06:06:44;94808.81;;;20.87;100.00
18790;BME280;9523;42.650;23.386;2022-07-29T06:09:14;94813.59;;;20.94;100.00
18790;BME280;9523;42.650;23.386;2022-07-29T06:11:44;94808.81;;;21.03;100.00
18790;BME280;9523;42.650;23.386;2022-07-29T06:14:12;94815.09;;;21.10;100.00
18790;BME280;9523;42.650;23.386;2022-07-29T06:16:39;94817.56;;;21.16;100.00
18790;BME280;9523;42.650;23.386;2022-07-29T06:19:06;94817.28;;;21.21;100.00
18790;BME280;9523;42.650;23.386;2022-07-29T06:21:36;94807.56;;;21.32;100.00
18790;BME280;9523;42.650;23.386;2022-07-29T06:24:04;94813.94;;;21.43;100.00
18790;BME280;9523;42.650;23.386;2022-07-29T06:26:31;94809.09;;;21.48;100.00
18790;BME280;9523;42.650;23.386;2022-07-29T06:28:58;94810.16;;;21.63;100.00
18790;BME280;9523;42.650;23.386;2022-07-29T06:31:27;94816.44;;;21.71;100.00
18790;BME280;9523;42.650;23.386;2022-07-29T06:33:53;94814.25;;;21.76;100.00
18790;BME280;9523;42.650;23.386;2022-07-29T06:36:20;94807.97;;;21.88;100.00
18790;BME280;9523;42.650;23.386;2022-07-29T06:38:47;94802.59;;;21.88;100.00
18790;BME280;9523;42.650;23.386;2022-07-29T06:41:14;94803.13;;;21.93;100.00
18790;BME280;9523;42.650;23.386;2022-07-29T06:43:42;94802.41;;;21.96;100.00
18790;BME280;9523;42.650;23.386;2022-07-29T06:46:12;94804.59;;;22.10;100.00
18790;BME280;9523;42.650;23.386;2022-07-29T06:48:41;94807.63;;;22.09;100.00
18790;BME280;9523;42.650;23.386;2022-07-29T06:51:09;94808.66;;;22.23;100.00
18790;BME280;9523;42.650;23.386;2022-07-29T06:53:37;94808.44;;;22.32;100.00
18790;BME280;9523;42.650;23.386;2022-07-29T06:56:05;94810.97;;;22.44;100.00
18790;BME280;9523;42.650;23.386;2022-07-29T06:58:35;94811.16;;;22.55;100.00
18790;BME280;9523;42.650;23.386;2022-07-29T07:01:05;94814.31;;;22.60;100.00
18790;BME280;9523;42.650;23.386;2022-07-29T07:03:32;94804.28;;;22.57;100.00
18790;BME280;9523;42.650;23.386;2022-07-29T07:06:00;94799.94;;;22.72;100.00
18790;BME280;9523;42.650;23.386;2022-07-29T07:08:27;94794.19;;;22.73;100.00
18790;BME280;9523;42.650;23.386;2022-07-29T07:10:54;94806.47;;;22.97;100.00
18790;BME280;9523;42.650;23.386;2022-07-29T07:13:22;94802.41;;;23.07;100.00
18790;BME280;9523;42.650;23.386;2022-07-29T07:15:49;94799.94;;;23.21;100.00
18790;BME280;9523;42.650;23.386;2022-07-29T07:18:17;94804.69;;;23.31;100.00
18790;BME280;9523;42.650;23.386;2022-07-29T07:20:44;94799.41;;;23.38;98.71
18790;BME280;9523;42.650;23.386;2022-07-29T07:23:12;94793.03;;;23.50;96.06
18790;BME280;9523;42.650;23.386;2022-07-29T07:25:39;94806.25;;;23.58;93.80
18790;BME280;9523;42.650;23.386;2022-07-29T07:28:06;94787.06;;;23.63;91.66
18790;BME280;9523;42.650;23.386;2022-07-29T07:30:33;94791.41;;;23.71;90.62
18790;BME280;9523;42.650;23.386;2022-07-29T07:33:00;94790.84;;;23.89;91.46
18790;BME280;9523;42.650;23.386;2022-07-29T07:37:57;94792.88;;;23.99;87.79
18790;BME280;9523;42.650;23.386;2022-07-29T07:40:28;94783.75;;;24.10;87.78
18790;BME280;9523;42.650;23.386;2022-07-29T07:42:55;94785.78;;;24.17;85.37
18790;BME280;9523;42.650;23.386;2022-07-29T07:45:22;94790.91;;;24.29;85.27
18790;BME280;9523;42.650;23.386;2022-07-29T07:47:49;94789.50;;;24.42;84.79
18790;BME280;9523;42.650;23.386;2022-07-29T07:50:16;94782.19;;;24.43;81.73
18790;BME280;9523;42.650;23.386;2022-07-29T07:52:48;94786.19;;;24.56;81.69
18790;BME280;9523;42.650;23.386;2022-07-29T07:55:16;94788.59;;;24.68;79.64
18790;BME280;9523;42.650;23.386;2022-07-29T07:57:44;94786.25;;;24.66;78.79
18790;BME280;9523;42.650;23.386;2022-07-29T08:00:13;94786.34;;;24.77;80.34
18790;BME280;9523;42.650;23.386;2022-07-29T08:02:40;94786.38;;;24.80;73.58
18790;BME280;9523;42.650;23.386;2022-07-29T08:05:08;94761.38;;;24.84;75.90
18790;BME280;9523;42.650;23.386;2022-07-29T08:07:35;94787.41;;;25.13;74.85
18790;BME280;9523;42.650;23.386;2022-07-29T08:10:05;94792.88;;;25.20;72.87
18790;BME280;9523;42.650;23.386;2022-07-29T08:12:34;94789.09;;;25.32;71.92
18790;BME280;9523;42.650;23.386;2022-07-29T08:15:03;94791.84;;;25.42;70.35
18790;BME280;9523;42.650;23.386;2022-07-29T08:17:32;94751.72;;;25.44;70.29
18790;BME280;9523;42.650;23.386;2022-07-29T08:19:59;94785.50;;;25.82;66.75
18790;BME280;9523;42.650;23.386;2022-07-29T08:22:26;94789.78;;;25.90;66.22
18790;BME280;9523;42.650;23.386;2022-07-29T08:24:56;94780.94;;;25.97;68.29
18790;BME280;9523;42.650;23.386;2022-07-29T08:27:23;94772.47;;;26.09;64.08
18790;BME280;9523;42.650;23.386;2022-07-29T08:29:51;94767.16;;;26.23;62.22
18790;BME280;9523;42.650;23.386;2022-07-29T08:32:22;94773.34;;;26.41;62.04
18790;BME280;9523;42.650;23.386;2022-07-29T08:34:52;94775.69;;;26.50;57.96
18790;BME280;9523;42.650;23.386;2022-07-29T08:37:19;94784.97;;;26.67;55.31
18790;BME280;9523;42.650;23.386;2022-07-29T08:39:48;94776.50;;;26.86;54.12
18790;BME280;9523;42.650;23.386;2022-07-29T08:42:15;94773.78;;;27.03;49.59
18790;BME280;9523;42.650;23.386;2022-07-29T08:44:43;94757.53;;;27.11;50.68
18790;BME280;9523;42.650;23.386;2022-07-29T08:47:13;94768.31;;;27.35;50.52
18790;BME280;9523;42.650;23.386;2022-07-29T08:49:42;94773.34;;;27.47;47.77
18790;BME280;9523;42.650;23.386;2022-07-29T08:52:11;94762.88;;;27.57;46.11
18790;BME280;9523;42.650;23.386;2022-07-29T08:54:43;94759.31;;;27.77;46.67
18790;BME280;9523;42.650;23.386;2022-07-29T08:57:12;94761.50;;;28.07;46.59
18790;BME280;9523;42.650;23.386;2022-07-29T08:59:42;94760.28;;;28.26;47.41
18790;BME280;9523;42.650;23.386;2022-07-29T09:02:15;94760.50;;;28.49;45.37
18790;BME280;9523;42.650;23.386;2022-07-29T09:04:47;94761.84;;;28.82;45.46
18790;BME280;9523;42.650;23.386;2022-07-29T09:07:15;94760.00;;;29.16;44.96
18790;BME280;9523;42.650;23.386;2022-07-29T09:09:42;94748.91;;;29.41;44.75
18790;BME280;9523;42.650;23.386;2022-07-29T09:12:10;94762.59;;;29.68;42.23
18790;BME280;9523;42.650;23.386;2022-07-29T09:14:37;94757.56;;;30.00;41.20
18790;BME280;9523;42.650;23.386;2022-07-29T09:17:07;94758.28;;;30.04;40.96
18790;BME280;9523;42.650;23.386;2022-07-29T09:19:36;94752.03;;;30.07;43.96
18790;BME280;9523;42.650;23.386;2022-07-29T09:22:05;94754.16;;;30.23;42.89
18790;BME280;9523;42.650;23.386;2022-07-29T09:24:38;94761.53;;;30.22;42.19
18790;BME280;9523;42.650;23.386;2022-07-29T09:27:10;94748.34;;;30.21;41.41
18790;BME280;9523;42.650;23.386;2022-07-29T09:29:37;94756.13;;;30.19;41.70
18790;BME280;9523;42.650;23.386;2022-07-29T09:32:08;94746.06;;;29.89;41.59
18790;BME280;9523;42.650;23.386;2022-07-29T09:34:36;94758.59;;;29.76;42.35
18790;BME280;9523;42.650;23.386;2022-07-29T09:37:09;94748.84;;;29.78;42.51
18790;BME280;9523;42.650;23.386;2022-07-29T09:39:41;94718.81;;;30.19;42.86
18790;BME280;9523;42.650;23.386;2022-07-29T09:42:12;94749.81;;;31.72;40.77
18790;BME280;9523;42.650;23.386;2022-07-29T09:44:44;94751.25;;;33.00;37.90
18790;BME280;9523;42.650;23.386;2022-07-29T09:47:14;94746.38;;;34.39;33.82
18790;BME280;9523;42.650;23.386;2022-07-29T09:49:52;94743.88;;;35.30;32.69
18790;BME280;9523;42.650;23.386;2022-07-29T09:52:21;94740.25;;;36.72;31.36
18790;BME280;9523;42.650;23.386;2022-07-29T09:54:50;94730.94;;;37.83;29.67
18790;BME280;9523;42.650;23.386;2022-07-29T09:57:24;94731.66;;;38.71;28.19
18790;BME280;9523;42.650;23.386;2022-07-29T09:59:59;94708.94;;;38.85;27.64
18790;BME280;9523;42.650;23.386;2022-07-29T10:02:31;94724.69;;;38.93;27.23
18790;BME280;9523;42.650;23.386;2022-07-29T10:04:59;94697.72;;;38.56;26.72
18790;BME280;9523;42.650;23.386;2022-07-29T10:07:43;94693.75;;;39.52;27.79
18790;BME280;9523;42.650;23.386;2022-07-29T10:10:11;94658.94;;;39.69;26.10
18790;BME280;9523;42.650;23.386;2022-07-29T10:12:53;94704.81;;;40.19;25.09
18790;BME280;9523;42.650;23.386;2022-07-29T10:15:22;94701.88;;;39.70;25.79
18790;BME280;9523;42.650;23.386;2022-07-29T10:17:51;94698.59;;;39.42;26.75
18790;BME280;9523;42.650;23.386;2022-07-29T10:20:18;94701.97;;;38.66;27.06
18790;BME280;9523;42.650;23.386;2022-07-29T10:22:48;94702.78;;;38.57;28.88
18790;BME280;9523;42.650;23.386;2022-07-29T10:25:19;94676.91;;;38.13;29.01
18790;BME280;9523;42.650;23.386;2022-07-29T10:27:47;94680.88;;;38.12;28.95
18790;BME280;9523;42.650;23.386;2022-07-29T10:30:15;94686.13;;;38.75;28.12
18790;BME280;9523;42.650;23.386;2022-07-29T10:33:09;94677.59;;;38.22;27.50
18790;BME280;9523;42.650;23.386;2022-07-29T10:35:56;94681.78;;;38.18;27.52
18790;BME280;9523;42.650;23.386;2022-07-29T10:38:39;94670.81;;;39.22;27.19
18790;BME280;9523;42.650;23.386;2022-07-29T10:41:29;94672.47;;;39.67;25.13
18790;BME280;9523;42.650;23.386;2022-07-29T10:44:02;94671.81;;;40.30;25.73
18790;BME280;9523;42.650;23.386;2022-07-29T10:46:35;94672.38;;;40.84;24.20
18790;BME280;9523;42.650;23.386;2022-07-29T10:49:11;94674.38;;;40.49;25.01
18790;BME280;9523;42.650;23.386;2022-07-29T10:52:00;94669.03;;;41.15;23.33
18790;BME280;9523;42.650;23.386;2022-07-29T10:54:43;94653.38;;;41.78;23.18
18790;BME280;9523;42.650;23.386;2022-07-29T10:57:18;94657.72;;;42.42;23.46
18790;BME280;9523;42.650;23.386;2022-07-29T10:59:46;94658.81;;;41.93;22.25
18790;BME280;9523;42.650;23.386;2022-07-29T11:02:45;94653.38;;;41.52;22.79
18790;BME280;9523;42.650;23.386;2022-07-29T11:05:18;94647.34;;;40.93;22.24
18790;BME280;9523;42.650;23.386;2022-07-29T11:08:16;94642.84;;;41.82;23.72
18790;BME280;9523;42.650;23.386;2022-07-29T11:10:47;94649.66;;;42.12;23.00
18790;BME280;9523;42.650;23.386;2022-07-29T11:13:47;94645.00;;;41.98;22.53
18790;BME280;9523;42.650;23.386;2022-07-29T11:16:16;94636.06;;;42.14;21.98
18790;BME280;9523;42.650;23.386;2022-07-29T11:21:47;94642.91;;;42.19;22.27
18790;BME280;9523;42.650;23.386;2022-07-29T11:24:17;94628.78;;;42.17;22.57
18790;BME280;9523;42.650;23.386;2022-07-29T11:26:45;94630.44;;;42.35;22.42
18790;BME280;9523;42.650;23.386;2022-07-29T11:29:32;94622.97;;;42.46;22.13
18790;BME280;9523;42.650;23.386;2022-07-29T11:32:08;94620.09;;;42.67;22.25
18790;BME280;9523;42.650;23.386;2022-07-29T11:34:36;94621.63;;;42.68;22.21
18790;BME280;9523;42.650;23.386;2022-07-29T11:37:19;94623.50;;;42.98;22.55
18790;BME280;9523;42.650;23.386;2022-07-29T11:40:11;94617.19;;;42.50;22.70
18790;BME280;9523;42.650;23.386;2022-07-29T11:42:50;94617.13;;;42.39;22.04
18790;BME280;9523;42.650;23.386;2022-07-29T11:45:24;94617.59;;;42.32;21.83
18790;BME280;9523;42.650;23.386;2022-07-29T11:47:55;94607.91;;;42.22;21.90
18790;BME280;9523;42.650;23.386;2022-07-29T11:50:33;94606.03;;;42.44;21.50
18790;BME280;9523;42.650;23.386;2022-07-29T11:53:02;94601.19;;;42.28;21.72
18790;BME280;9523;42.650;23.386;2022-07-29T11:55:29;94611.47;;;40.44;21.69
18790;BME280;9523;42.650;23.386;2022-07-29T11:58:02;94604.63;;;40.10;22.50
18790;BME280;9523;42.650;23.386;2022-07-29T12:00:31;94609.84;;;39.73;24.38
18790;BME280;9523;42.650;23.386;2022-07-29T12:03:00;94599.06;;;38.60;24.59
18790;BME280;9523;42.650;23.386;2022-07-29T12:05:32;94600.53;;;38.70;24.81
18790;BME280;9523;42.650;23.386;2022-07-29T12:08:11;94603.03;;;38.59;25.03
18790;BME280;9523;42.650;23.386;2022-07-29T12:10:39;94589.50;;;37.62;24.64
18790;BME280;9523;42.650;23.386;2022-07-29T12:13:08;94590.47;;;37.04;25.86
18790;BME280;9523;42.650;23.386;2022-07-29T12:15:35;94597.63;;;37.02;26.23
18790;BME280;9523;42.650;23.386;2022-07-29T12:18:13;94591.84;;;36.23;26.63
18790;BME280;9523;42.650;23.386;2022-07-29T12:20:40;94579.53;;;36.46;27.26
18790;BME280;9523;42.650;23.386;2022-07-29T12:23:08;94598.75;;;36.37;26.37
18790;BME280;9523;42.650;23.386;2022-07-29T12:25:38;94590.81;;;36.39;27.55
18790;BME280;9523;42.650;23.386;2022-07-29T12:28:08;94585.59;;;36.32;27.65
18790;BME280;9523;42.650;23.386;2022-07-29T12:30:37;94592.31;;;36.22;28.01
18790;BME280;9523;42.650;23.386;2022-07-29T12:33:16;94588.00;;;36.12;27.50
18790;BME280;9523;42.650;23.386;2022-07-29T12:35:45;94588.47;;;36.10;29.23
18790;BME280;9523;42.650;23.386;2022-07-29T12:38:13;94590.59;;;35.85;26.61
18790;BME280;9523;42.650;23.386;2022-07-29T12:40:41;94584.44;;;35.71;27.89
18790;BME280;9523;42.650;23.386;2022-07-29T12:43:11;94584.66;;;35.55;27.46
18790;BME280;9523;42.650;23.386;2022-07-29T12:45:39;94534.53;;;35.11;27.27
18790;BME280;9523;42.650;23.386;2022-07-29T12:48:07;94586.72;;;35.42;29.46
18790;BME280;9523;42.650;23.386;2022-07-29T12:50:35;94559.91;;;35.46;29.67
18790;BME280;9523;42.650;23.386;2022-07-29T12:53:10;94537.47;;;35.69;28.37
18790;BME280;9523;42.650;23.386;2022-07-29T12:55:45;94582.75;;;36.05;27.99
18790;BME280;9523;42.650;23.386;2022-07-29T12:58:25;94566.22;;;35.87;27.61
18790;BME280;9523;42.650;23.386;2022-07-29T13:01:04;94533.34;;;35.65;27.77
18790;BME280;9523;42.650;23.386;2022-07-29T13:03:45;94557.72;;;35.94;27.37
18790;BME280;9523;42.650;23.386;2022-07-29T13:06:34;94554.78;;;36.37;29.39
18790;BME280;9523;42.650;23.386;2022-07-29T13:09:03;94555.41;;;36.41;29.43
18790;BME280;9523;42.650;23.386;2022-07-29T13:11:31;94530.84;;;36.47;28.87
18790;BME280;9523;42.650;23.386;2022-07-29T13:14:00;94552.28;;;36.12;27.32
18790;BME280;9523;42.650;23.386;2022-07-29T13:16:27;94551.41;;;35.53;28.31